Augusta, Ohio
Current Conditions -  °F | °C
As of 9:53 PM on Saturday 22 Nov 2014 (Local Time) from KPHD Reporting Station
Overcast Overcast  
Wind Chill: 51°   Ceiling: 6000
Heat Index: 51°   Visibility: 10mi
Dew Point: 31°   Wind: 6mph
Humidity: 46%   Direction: 200°SSW
Pressure: 30.1"   Gusts: NA
Location:  40.69°N, 81.02°W
Report Text: KPHD 230253Z AUTO 20005KT 10SM OVC060 11/M01 A3010 RMK AO2 SLP198 60000 T01061006 56007
Loading
Personal Weather Stations






























Interactive Weather Map New forecast layout! Learn more

10-Day Weather Forecast

Advertisements
Track Severe Weather on mobile